x

Luke Offshore Test Platform - 64 Nm South Of Dauphin Island, Al (42040) Wave Buoy

4:50pm - Fri 6th Mar 2015 All times are CST. -6 hours from GMT.

  • Sig Wave height 4.6ft
  • Swell Direction
  • Peak Period 6s
  • Average Period 4s
  • Wind
    20mph, 27mph gusts
  • Sea Temp 66°f
  • Air Temp 50°f
  • Sea Pressure 1028.2mb
  • Luke Offshore Test Platform - 64 Nm South Of Dauphin Island, Al
  • Luke Offshore Test Platform - 64 Nm South Of Dauphin Island, Al

More Historic Weather Station data

Upgrade to MSW Pro to gain access to the past 30 days of data for over 8000 Wavebouys and Weather Stations around the globe.

Join Pro

Comparision Forecast

View Surf forecast
   
Fri 03/06 4:50pm 4.5ft 6s 4s 20 27 mph 1028.2mb 66f 50f
3:50pm 5ft 6s 4s 22 25 mph 1028.4mb 66f 50f
2:50pm 5ft 6s 4s 22 27 mph 1028.5mb 66f 49f
1:50pm 5ft 6s 4s 27 31 mph 1028.6mb 66f 47f
12:50pm 6ft 6s 5s 25 31 mph 1029.5mb 67f 45f
11:50am 5ft 6s 5s 22 29 mph 1030.2mb 67f 44f
10:50am 6ft 7s 5s 20 27 mph 1030.7mb 67f 44f
9:50am 6ft 7s 5s 22 29 mph 1030.2mb 67f 43f
8:50am 6.5ft 7s 5s 20 27 mph 1029.9mb 67f 44f
7:50am 6ft 6s 5s 22 27 mph 1029.3mb 67f 43f
6:50am 7ft 7s 5s 22 27 mph 1028.4mb 67f 43f
5:50am 7ft 7s 5s 25 31 mph 1027.6mb 67f 43f
4:50am 8ft 7s 5s 27 31 mph 1027.3mb 67f 44f
3:50am 7.5ft 7s 5s 29 34 mph 1026.7mb 67f 44f
2:50am 7.5ft 7s 5s 29 36 mph 1026.7mb 67f 45f
1:50am  -   -   -  29 34 mph 1026.8mb 67f 45f
12:50am  -   -   -  31 38 mph 1026.9mb 68f 46f
Thu 03/05 11:50pm 8ft 7s 5s 31 38 mph 1027.2mb 68f 46f
10:50pm 9ft 7s 5s 31 40 mph 1027.4mb 68f 47f
9:50pm 8ft 7s 5s 34 38 mph 1027.2mb 69f 48f
8:50pm 10ft 7s 6s 34 40 mph 1026.4mb 69f 48f
7:50pm 9ft 7s 5s 36 45 mph 1025.6mb 69f 48f
6:50pm 9ft 7s 5s 31 38 mph 1024.4mb 70f 50f
5:50pm 8ft 7s  -  31 36 mph 1023.5mb 70f 51f
4:50pm  -   -   -  31 36 mph 1022.2mb 70f 52f
3:50pm 7ft 6s 5s 31 38 mph 1021.2mb 71f 52f
2:50pm 8ft 7s 5s 29 36 mph 1020.3mb 71f 54f
1:50pm  -   -   -  29 34 mph 1020.1mb 71f 56f
12:50pm 7ft 6s 5s 27 31 mph 1020.1mb 71f 57f
11:50am 7ft 6s 5s 25 29 mph 1020mb 71f 57f
10:50am 5.5ft 5s 5s 31 38 mph 1019.4mb 71f 58f
9:50am 4.5ft 7s 5s 38 45 mph 1018.7mb 71f 61f
8:50am 4.5ft 8s 5s 16 18 mph 1017.1mb 71f 71f
7:50am 4.5ft 8s 6s 13 18 mph 1015.9mb 71f 73f
6:50am 4.5ft 8s 6s 13 16 mph 1015.3mb 71f 73f
5:50am 4.5ft 7s 5s 13 16 mph 1014.6mb 71f 73f
4:50am 5ft 8s 6s 9
mph
1014.4mb 71f 73f
3:50am 4.5ft 7s 6s 11 13 mph 1013.7mb 71f 73f
2:50am 4.5ft 8s 6s 11
mph
1014.6mb 71f 73f
1:50am 4.5ft 6s 6s 11 13 mph 1014.8mb 72f 73f
12:50am 4.5ft 7s 6s 11 13 mph 1014.7mb 72f 73f
Wed 03/04 11:50pm 4.5ft 6s 5s 9 11 mph 1015.1mb 72f 73f
10:50pm 4.5ft 8s 5s 11 13 mph 1015.1mb 72f 73f
9:50pm 4.5ft 7s 6s 11 13 mph 1015.2mb 72f 73f
8:50pm 4ft 7s 5s 13 16 mph 1014.8mb 72f 73f
7:50pm 4.5ft 7s 5s 11 13 mph 1014.7mb 72f 73f
6:50pm 4.5ft 7s 5s 13
mph
1014.2mb 72f 73f
5:50pm  -   -   -  13
mph
1014mb 72f 73f
4:50pm 4.5ft 7s 5s 13 16 mph 1014.1mb 72f 73f
3:50pm 4.5ft 6s 5s 13 16 mph 1014.4mb 72f 73f
2:50pm 4.5ft 7s 5s 18 20 mph 1014.5mb 72f 73f
1:50pm 4.5ft 7s 5s 16 18 mph 1015.1mb 72f 73f
12:50pm 4ft 7s 5s 16 18 mph 1015.8mb 72f 73f
11:50am 3.5ft 6s 5s 18 20 mph 1016.8mb 72f 73f
10:50am 3.5ft 6s 5s 16 18 mph 1017.5mb 72f 73f
9:50am 3.5ft 6s 5s 16 18 mph 1017.8mb 71f 73f
8:50am 3.5ft 7s 5s 13 18 mph 1017.9mb 71f 73f
7:50am 4ft 6s 5s 13 16 mph 1017.2mb 71f 72f
6:50am 3.5ft 6s 5s 18 20 mph 1016.6mb 71f 72f
5:50am 3.5ft 6s 5s 13 16 mph 1016.5mb 71f 72f
4:50am 3.5ft 6s 5s 16 18 mph 1016.3mb 71f 71f
3:50am 3.5ft 6s 5s 18 20 mph 1015.9mb 71f 71f
2:50am 4ft 6s 5s 16 18 mph 1016.3mb 71f 71f
1:50am 4ft 6s 5s 18 20 mph 1016.6mb 71f 71f
12:50am 4ft 7s 5s 20 22 mph 1017mb 71f 71f
Tue 03/03 11:50pm 3.5ft 6s 4s 20 25 mph 1017.3mb 71f 71f
10:50pm 4ft 6s 4s 18 20 mph 1017.8mb 71f 71f
9:50pm 4ft 4s 4s 20 25 mph 1018mb 71f 71f
8:50pm 4ft 4s 4s 22 27 mph 1017.6mb 71f 71f
7:50pm 3.5ft 7s 4s 22 25 mph 1017.6mb 71f 71f
6:50pm 3.5ft 7s 4s 20 22 mph 1017.5mb 71f 71f
5:50pm 3.5ft 8s 4s 18 22 mph 1017.5mb 72f 71f
4:50pm 3ft 7s 4s 18 20 mph 1017.8mb 72f 71f
3:50pm 3ft 7s 4s 16 20 mph 1018.3mb 72f 71f
2:50pm 2.5ft 8s 4s 16 18 mph 1018.8mb 72f 71f
1:50pm 2.5ft 8s 4s 16 18 mph 1019.4mb 72f 71f
12:50pm 2.5ft 6s 5s 16 18 mph 1020.6mb 72f 71f
11:50am 2.5ft 7s 5s 16 18 mph 1021.2mb 72f 71f
10:50am 2.5ft 8s 5s 16 18 mph 1021.7mb 71f 71f
9:50am 2.5ft 6s 5s 13 16 mph 1022mb 71f 71f
8:50am 2ft 7s 5s 16 18 mph 1021.8mb 71f 71f
7:50am 2ft 6s 5s 11 13 mph 1021.6mb 71f 71f
6:50am 2ft 7s 5s 11 13 mph 1021.3mb 71f 70f
5:50am 2.5ft 7s 5s 11
mph
1021mb 71f 70f
4:50am 2.5ft 7s 5s 11 13 mph 1020.8mb 71f 70f
3:50am 2.5ft 7s 5s 11 13 mph 1021mb 71f 70f
2:50am 2.5ft 7s 5s 11 13 mph 1021.5mb 71f 70f
1:50am 2.5ft 7s 5s 11 13 mph 1021.8mb 71f 70f
12:50am 2.5ft 7s 5s 11
mph
1022.2mb 71f 70f